createdAt,value
2018-03-26T00:00:20.232Z,54.44
2018-03-26T00:02:47.744Z,54.46
2018-03-26T00:05:15.370Z,54.55
2018-03-26T00:07:43.866Z,54.39
2018-03-26T00:10:11.384Z,54.56
2018-03-26T00:12:39.770Z,54.99
2018-03-26T00:15:07.291Z,55.32
2018-03-26T00:17:35.001Z,55.54
2018-03-26T00:20:02.528Z,55.31
2018-03-26T00:22:30.035Z,55.09
2018-03-26T00:24:57.569Z,55.60
2018-03-26T00:27:25.997Z,55.67
2018-03-26T00:29:53.557Z,55.41
2018-03-26T00:32:21.078Z,55.88
2018-03-26T00:34:48.618Z,55.52
2018-03-26T00:37:16.161Z,57.11
2018-03-26T00:39:43.681Z,57.12
2018-03-26T00:42:11.645Z,57.65
2018-03-26T00:44:39.164Z,57.56
2018-03-26T00:47:06.966Z,57.80
2018-03-26T00:49:34.506Z,58.01
2018-03-26T00:52:02.018Z,58.21
2018-03-26T00:54:29.719Z,58.59
2018-03-26T00:56:57.274Z,58.41
2018-03-26T00:59:24.758Z,59.37
2018-03-26T01:01:52.297Z,59.34
2018-03-26T01:04:19.809Z,59.68
2018-03-26T01:06:47.358Z,58.37
2018-03-26T01:09:14.866Z,58.25
2018-03-26T01:11:42.381Z,58.42
2018-03-26T01:14:09.922Z,58.50
2018-03-26T01:16:37.444Z,58.29
2018-03-26T01:19:05.009Z,58.30
2018-03-26T01:21:32.693Z,58.28
2018-03-26T01:24:00.241Z,58.55
2018-03-26T01:26:27.796Z,59.25
2018-03-26T01:28:55.320Z,58.89
2018-03-26T01:31:23.101Z,58.95
2018-03-26T01:33:50.628Z,58.67
2018-03-26T01:36:18.138Z,58.90
2018-03-26T01:38:45.680Z,59.83
2018-03-26T01:41:13.193Z,59.47
2018-03-26T01:43:40.742Z,59.25
2018-03-26T01:46:08.266Z,59.34
2018-03-26T01:48:35.788Z,60.02
2018-03-26T01:51:03.338Z,59.64
2018-03-26T01:53:30.850Z,59.19
2018-03-26T01:55:58.597Z,58.64
2018-03-26T01:58:26.114Z,59.13
2018-03-26T02:00:53.624Z,59.59
2018-03-26T02:03:21.166Z,59.68
2018-03-26T02:05:48.678Z,59.53
2018-03-26T02:08:16.405Z,59.60
2018-03-26T02:10:43.914Z,59.81
2018-03-26T02:13:11.427Z,59.37
2018-03-26T02:15:38.980Z,58.57
2018-03-26T02:18:06.505Z,58.74
2018-03-26T02:20:34.299Z,58.28
2018-03-26T02:23:01.809Z,57.88
2018-03-26T02:25:29.329Z,57.61
2018-03-26T02:27:56.866Z,57.35
2018-03-26T02:30:24.378Z,57.29
2018-03-26T02:32:51.942Z,57.15
2018-03-26T02:35:19.457Z,56.70
2018-03-26T02:37:46.969Z,56.58
2018-03-26T02:40:14.508Z,56.27
2018-03-26T02:42:42.017Z,57.49
2018-03-26T02:45:09.691Z,56.94
2018-03-26T02:47:37.231Z,57.60
2018-03-26T02:50:04.742Z,56.77
2018-03-26T02:52:32.285Z,57.25
2018-03-26T02:54:59.802Z,57.34
2018-03-26T02:57:27.583Z,57.49
2018-03-26T02:59:55.106Z,57.12
2018-03-26T03:02:22.620Z,56.68
2018-03-26T03:04:50.162Z,56.94
2018-03-26T03:07:17.682Z,56.87
2018-03-26T03:09:45.237Z,56.72
2018-03-26T03:12:12.746Z,56.62
2018-03-26T03:14:40.720Z,57.02
2018-03-26T03:17:08.261Z,57.02
2018-03-26T03:19:35.787Z,56.56
2018-03-26T03:22:03.514Z,56.50
2018-03-26T03:24:31.033Z,56.12
2018-03-26T03:26:58.545Z,56.87
2018-03-26T03:29:26.086Z,57.15
2018-03-26T03:31:53.606Z,57.08
2018-03-26T03:34:21.273Z,57.17
2018-03-26T03:36:48.792Z,56.73
2018-03-26T03:39:16.314Z,57.13
2018-03-26T03:41:43.860Z,56.67
2018-03-26T03:44:11.373Z,56.76
2018-03-26T03:46:38.925Z,56.97
2018-03-26T03:49:06.456Z,57.25
2018-03-26T03:51:33.985Z,56.48
2018-03-26T03:54:01.523Z,56.35
2018-03-26T03:56:29.035Z,56.60
2018-03-26T03:58:56.785Z,56.49
2018-03-26T04:01:24.294Z,56.27
2018-03-26T04:03:51.804Z,56.58
2018-03-26T04:06:19.341Z,55.75
2018-03-26T04:08:46.866Z,55.43
2018-03-26T04:11:14.670Z,56.09
2018-03-26T04:13:42.181Z,55.77
2018-03-26T04:16:09.702Z,55.86
2018-03-26T04:18:38.005Z,55.66
2018-03-26T04:21:05.524Z,56.91
2018-03-26T04:23:33.195Z,57.52
2018-03-26T04:26:00.727Z,56.87
2018-03-26T04:28:28.242Z,56.46
2018-03-26T04:30:55.782Z,56.23
2018-03-26T04:33:23.298Z,56.98
2018-03-26T04:35:50.949Z,57.51
2018-03-26T04:38:18.461Z,57.00
2018-03-26T04:40:45.992Z,56.14
2018-03-26T04:43:13.528Z,55.95
2018-03-26T04:45:41.039Z,55.68
2018-03-26T04:48:08.610Z,55.77
2018-03-26T04:50:36.125Z,55.27
2018-03-26T04:53:03.637Z,55.38
2018-03-26T04:55:31.174Z,55.06
2018-03-26T04:57:58.682Z,55.09
2018-03-26T05:00:26.485Z,54.74
2018-03-26T05:02:53.993Z,54.59
2018-03-26T05:05:21.518Z,54.20
2018-03-26T05:07:49.056Z,53.85
2018-03-26T05:10:16.619Z,53.67
2018-03-26T05:12:44.169Z,54.01
2018-03-26T05:15:11.701Z,53.54
2018-03-26T05:17:39.222Z,53.43
2018-03-26T05:20:06.769Z,53.50
2018-03-26T05:22:34.285Z,53.14
2018-03-26T05:25:01.956Z,53.00
2018-03-26T05:27:29.489Z,52.77
2018-03-26T05:29:57.003Z,52.66
2018-03-26T05:32:24.729Z,52.47
2018-03-26T05:34:52.245Z,52.32
2018-03-26T05:37:19.797Z,52.50
2018-03-26T05:39:47.306Z,52.12
2018-03-26T05:42:14.853Z,52.12
2018-03-26T05:44:42.459Z,52.07
2018-03-26T05:47:09.974Z,52.20
2018-03-26T05:49:37.604Z,52.35
2018-03-26T05:52:05.173Z,51.64
2018-03-26T05:54:32.647Z,51.32
2018-03-26T05:57:00.190Z,51.43
2018-03-26T05:59:27.701Z,51.00
2018-03-26T06:01:55.683Z,52.16
2018-03-26T06:04:23.193Z,52.12
2018-03-26T06:06:50.714Z,51.41
2018-03-26T06:09:18.258Z,51.37
2018-03-26T06:11:45.765Z,50.79
2018-03-26T06:14:13.318Z,50.96
2018-03-26T06:16:52.617Z,50.75
2018-03-26T06:19:20.681Z,51.26
2018-03-26T06:21:48.649Z,50.79
2018-03-26T06:24:16.156Z,50.44
2018-03-26T06:26:43.696Z,51.11
2018-03-26T06:29:11.210Z,50.45
2018-03-26T06:31:38.859Z,50.12
2018-03-26T06:34:06.393Z,50.28
2018-03-26T06:36:39.617Z,50.90
2018-03-26T06:39:07.136Z,49.97
2018-03-26T06:41:34.657Z,49.86
2018-03-26T06:44:02.273Z,49.67
2018-03-26T06:46:29.748Z,49.94
2018-03-26T06:48:57.517Z,49.61
2018-03-26T06:51:25.030Z,49.66
2018-03-26T06:53:52.552Z,49.09
2018-03-26T06:56:20.089Z,49.57
2018-03-26T06:58:47.610Z,49.50
2018-03-26T07:01:15.297Z,48.75
2018-03-26T07:03:42.813Z,48.62
2018-03-26T07:06:10.323Z,48.49
2018-03-26T07:08:37.857Z,48.16
2018-03-26T07:11:05.467Z,48.02
2018-03-26T07:13:33.027Z,48.17
2018-03-26T07:16:00.538Z,47.93
2018-03-26T07:18:28.059Z,47.31
2018-03-26T07:20:55.682Z,47.40
2018-03-26T07:23:23.174Z,47.10
2018-03-26T07:25:50.733Z,47.04
2018-03-26T07:28:18.261Z,47.53
2018-03-26T07:30:45.782Z,47.17
2018-03-26T07:33:13.336Z,46.59
2018-03-26T07:35:40.854Z,46.14
2018-03-26T07:38:08.805Z,45.91
2018-03-26T07:40:36.325Z,45.51
2018-03-26T07:43:03.845Z,45.29
2018-03-26T07:45:31.414Z,45.35
2018-03-26T07:47:58.930Z,44.51
2018-03-26T07:50:26.474Z,44.13
2018-03-26T07:52:53.987Z,43.89
2018-03-26T07:55:21.509Z,44.20
2018-03-26T07:57:49.077Z,43.86
2018-03-26T08:00:16.652Z,43.92
2018-03-26T08:02:44.404Z,43.86
2018-03-26T08:05:11.941Z,43.57
2018-03-26T08:07:39.457Z,43.34
2018-03-26T08:10:07.186Z,42.89
2018-03-26T08:12:34.727Z,42.25
2018-03-26T08:15:02.314Z,42.04
2018-03-26T08:17:29.813Z,42.84
2018-03-26T08:19:57.331Z,41.53
2018-03-26T08:22:25.813Z,41.49
2018-03-26T08:24:53.889Z,41.71
2018-03-26T08:27:22.161Z,41.60
2018-03-26T08:29:49.706Z,41.46
2018-03-26T08:32:18.197Z,41.41
2018-03-26T08:34:46.171Z,41.51
2018-03-26T08:37:13.702Z,41.68
2018-03-26T08:39:41.579Z,41.00
2018-03-26T08:42:09.155Z,40.69
2018-03-26T08:44:36.719Z,40.48
2018-03-26T08:47:04.261Z,40.12
2018-03-26T08:49:31.783Z,40.18
2018-03-26T08:51:59.374Z,39.61
2018-03-26T08:54:27.873Z,39.72
2018-03-26T08:56:55.453Z,38.90
2018-03-26T08:59:23.008Z,39.09
2018-03-26T09:01:50.756Z,38.37
2018-03-26T09:04:19.135Z,37.35
2018-03-26T09:06:46.674Z,35.81
2018-03-26T09:09:14.202Z,35.94
2018-03-26T09:11:42.517Z,36.91
2018-03-26T09:14:11.035Z,37.70
2018-03-26T09:16:38.570Z,37.67
2018-03-26T09:19:06.190Z,37.68
2018-03-26T09:21:33.893Z,38.19
2018-03-26T09:24:01.417Z,38.19
2018-03-26T09:26:29.319Z,38.08
2018-03-26T09:28:56.914Z,38.80
2018-03-26T09:31:24.540Z,38.45
2018-03-26T09:33:52.203Z,38.25
2018-03-26T09:36:19.797Z,38.14
2018-03-26T09:38:48.652Z,38.51
2018-03-26T09:41:16.521Z,38.37
2018-03-26T09:43:44.389Z,38.66
2018-03-26T09:46:12.265Z,38.97
2018-03-26T09:48:40.732Z,38.78
2018-03-26T09:51:08.599Z,38.82
2018-03-26T09:53:36.669Z,39.06
2018-03-26T09:56:04.433Z,39.05
2018-03-26T09:58:32.207Z,38.62
2018-03-26T10:01:03.135Z,38.67
2018-03-26T10:03:30.921Z,37.91
2018-03-26T10:05:58.450Z,39.20
2018-03-26T10:08:26.228Z,39.41
2018-03-26T10:10:53.993Z,39.67
2018-03-26T10:13:21.854Z,39.50
2018-03-26T10:15:49.412Z,38.90
2018-03-26T10:18:16.936Z,38.58
2018-03-26T10:20:44.766Z,38.99
2018-03-26T10:23:12.312Z,38.99
2018-03-26T10:25:39.943Z,38.49
2018-03-26T10:28:08.826Z,38.26
2018-03-26T10:30:36.351Z,38.28
2018-03-26T10:33:03.924Z,38.58
2018-03-26T10:35:31.741Z,38.05
2018-03-26T10:37:59.298Z,37.95
2018-03-26T10:40:26.948Z,37.76
2018-03-26T10:42:54.597Z,37.82
2018-03-26T10:45:22.151Z,38.26
2018-03-26T10:47:49.713Z,37.46
2018-03-26T10:50:17.329Z,36.76
2018-03-26T10:52:45.262Z,37.11
2018-03-26T10:55:13.104Z,36.54
2018-03-26T10:57:40.672Z,36.73
2018-03-26T11:00:08.198Z,36.38
2018-03-26T11:02:36.115Z,36.52
2018-03-26T11:05:03.734Z,35.95
2018-03-26T11:07:31.625Z,35.53
2018-03-26T11:09:59.302Z,35.99
2018-03-26T11:12:27.255Z,36.80
2018-03-26T11:14:55.142Z,37.12
2018-03-26T11:17:23.209Z,36.19
2018-03-26T11:19:51.179Z,35.89
2018-03-26T11:22:19.319Z,34.92
2018-03-26T11:24:47.629Z,34.78
2018-03-26T11:27:23.055Z,33.98
2018-03-26T11:29:51.349Z,34.38
2018-03-26T11:32:19.254Z,33.96
2018-03-26T11:34:46.832Z,34.06
2018-03-26T11:37:14.642Z,33.80
2018-03-26T11:39:42.562Z,32.84
2018-03-26T11:42:10.892Z,32.77
2018-03-26T11:44:38.853Z,31.15
2018-03-26T11:47:07.234Z,30.99
2018-03-26T11:49:35.213Z,30.24
2018-03-26T11:52:03.479Z,29.18
2018-03-26T11:54:32.338Z,28.47
2018-03-26T11:57:01.059Z,28.12
2018-03-26T11:59:29.154Z,27.48
2018-03-26T12:01:57.731Z,26.36
2018-03-26T12:04:25.664Z,25.38
2018-03-26T12:06:53.947Z,24.21
2018-03-26T12:09:21.820Z,23.10
2018-03-26T12:11:49.882Z,22.28
2018-03-26T12:14:17.864Z,22.39
2018-03-26T12:16:45.833Z,23.41
2018-03-26T12:19:14.154Z,23.31
2018-03-26T12:21:42.077Z,23.67
2018-03-26T12:24:21.922Z,24.68
2018-03-26T12:26:50.016Z,24.57
2018-03-26T12:29:30.229Z,25.68
2018-03-26T12:31:58.262Z,25.63
2018-03-26T12:34:38.038Z,26.00
2018-03-26T12:37:06.752Z,26.38
2018-03-26T12:39:35.724Z,26.26
2018-03-26T12:42:04.780Z,26.21
2018-03-26T12:44:45.406Z,26.78
2018-03-26T12:47:13.792Z,26.86
2018-03-26T12:49:41.714Z,27.35
2018-03-26T12:52:23.342Z,27.08
2018-03-26T12:54:51.104Z,27.27
2018-03-26T12:57:31.005Z,27.84
2018-03-26T12:59:58.924Z,27.98
2018-03-26T13:02:28.292Z,27.75
2018-03-26T13:04:57.115Z,27.78
2018-03-26T13:07:24.994Z,27.85
2018-03-26T13:09:53.365Z,28.44
2018-03-26T13:12:21.838Z,29.84
2018-03-26T13:14:50.286Z,29.29
2018-03-26T13:17:18.185Z,30.16
2018-03-26T13:19:45.934Z,30.29
2018-03-26T13:22:15.388Z,31.94
2018-03-26T13:24:43.760Z,31.84
2018-03-26T13:27:11.599Z,31.92
2018-03-26T13:29:39.225Z,32.66
2018-03-26T13:32:07.175Z,33.00
2018-03-26T13:34:35.814Z,33.83
2018-03-26T13:37:03.781Z,34.20
2018-03-26T13:39:31.544Z,35.19
2018-03-26T13:41:59.540Z,35.48
2018-03-26T13:44:27.482Z,35.34
2018-03-26T13:46:55.555Z,36.00
2018-03-26T13:49:23.422Z,36.25
2018-03-26T13:51:51.287Z,37.06
2018-03-26T13:54:19.665Z,37.38
2018-03-26T13:56:48.863Z,36.88
2018-03-26T13:59:17.036Z,38.61
2018-03-26T14:01:44.659Z,37.84
2018-03-26T14:04:12.566Z,38.31
2018-03-26T14:06:41.005Z,38.14
2018-03-26T14:09:20.791Z,38.00
2018-03-26T14:12:00.272Z,38.69
2018-03-26T14:14:39.565Z,38.82
2018-03-26T14:17:19.617Z,38.89
2018-03-26T14:19:47.307Z,38.87
2018-03-26T14:22:15.131Z,39.24
2018-03-26T14:24:43.830Z,38.78
2018-03-26T14:27:11.609Z,38.69
2018-03-26T14:29:39.720Z,39.76
2018-03-26T14:32:07.431Z,39.28
2018-03-26T14:34:35.606Z,39.57
2018-03-26T14:37:03.258Z,39.75
2018-03-26T14:39:31.234Z,39.10
2018-03-26T14:41:59.203Z,39.61
2018-03-26T14:44:27.895Z,38.73
2018-03-26T14:46:57.003Z,38.65
2018-03-26T14:49:25.057Z,38.22
2018-03-26T14:51:53.038Z,38.09
2018-03-26T14:54:20.999Z,37.83
2018-03-26T14:56:49.085Z,37.88
2018-03-26T14:59:17.444Z,37.63
2018-03-26T15:01:45.412Z,36.70
2018-03-26T15:04:13.586Z,36.97
2018-03-26T15:06:41.458Z,37.10
2018-03-26T15:09:09.343Z,37.07
2018-03-26T15:11:37.596Z,36.94
2018-03-26T15:14:05.564Z,37.00
2018-03-26T15:16:33.637Z,37.37
2018-03-26T15:19:02.218Z,37.40
2018-03-26T15:21:30.047Z,37.02
2018-03-26T15:23:57.910Z,37.76
2018-03-26T15:26:25.614Z,37.44
2018-03-26T15:28:53.583Z,37.74
2018-03-26T15:31:21.655Z,37.87
2018-03-26T15:33:50.344Z,37.93
2018-03-26T15:36:18.898Z,38.19
2018-03-26T15:38:46.804Z,37.77
2018-03-26T15:41:15.206Z,38.37
2018-03-26T15:43:43.163Z,37.87
2018-03-26T15:46:11.823Z,38.16
2018-03-26T15:48:40.202Z,38.22
2018-03-26T15:51:08.723Z,38.15
2018-03-26T15:53:37.575Z,38.41
2018-03-26T15:56:05.468Z,38.61
2018-03-26T15:58:33.327Z,39.11
2018-03-26T16:01:01.462Z,39.23
2018-03-26T16:03:30.782Z,38.95
2018-03-26T16:05:58.658Z,39.28
2018-03-26T16:08:26.590Z,39.39
2018-03-26T16:10:54.687Z,39.20
2018-03-26T16:13:22.963Z,39.40
2018-03-26T16:15:50.829Z,39.32
2018-03-26T16:18:19.002Z,39.01
2018-03-26T16:20:47.289Z,39.14
2018-03-26T16:23:15.250Z,39.09
2018-03-26T16:25:43.652Z,38.73
2018-03-26T16:28:11.411Z,38.90
2018-03-26T16:30:39.155Z,38.99
2018-03-26T16:33:07.022Z,38.93
2018-03-26T16:35:34.952Z,38.57
2018-03-26T16:38:03.685Z,38.68
2018-03-26T16:40:31.544Z,38.46
2018-03-26T16:43:07.805Z,38.51
2018-03-26T16:45:35.674Z,38.20
2018-03-26T16:48:03.325Z,38.14
2018-03-26T16:50:31.815Z,38.42
2018-03-26T16:52:59.717Z,38.50
2018-03-26T16:55:27.856Z,38.20
2018-03-26T16:57:55.637Z,38.44
2018-03-26T17:00:23.998Z,38.75
2018-03-26T17:02:51.966Z,38.25
2018-03-26T17:05:19.781Z,38.58
2018-03-26T17:07:47.878Z,39.01
2018-03-26T17:10:16.361Z,39.43
2018-03-26T17:12:44.150Z,39.99
2018-03-26T17:15:11.917Z,40.41
2018-03-26T17:17:39.986Z,40.76
2018-03-26T17:20:10.201Z,41.36
2018-03-26T17:22:38.892Z,41.59
2018-03-26T17:25:06.964Z,41.96
2018-03-26T17:27:34.831Z,42.34
2018-03-26T17:30:03.209Z,42.70
2018-03-26T17:32:31.077Z,42.61
2018-03-26T17:34:58.841Z,42.86
2018-03-26T17:37:26.697Z,42.88
2018-03-26T17:39:54.573Z,43.89
2018-03-26T17:42:22.337Z,44.08
2018-03-26T17:44:50.203Z,44.38
2018-03-26T17:47:18.290Z,44.47
2018-03-26T17:49:46.139Z,45.08
2018-03-26T17:52:14.520Z,44.85
2018-03-26T17:54:42.718Z,45.13
2018-03-26T17:57:11.484Z,45.14
2018-03-26T17:59:40.168Z,45.03
2018-03-26T18:02:08.651Z,45.26
2018-03-26T18:04:37.540Z,45.72
2018-03-26T18:07:05.919Z,45.35
2018-03-26T18:09:35.171Z,45.84
2018-03-26T18:12:03.086Z,46.00
2018-03-26T18:14:30.951Z,46.19
2018-03-26T18:16:58.840Z,46.57
2018-03-26T18:19:26.684Z,46.14
2018-03-26T18:21:54.754Z,46.10
2018-03-26T18:24:22.622Z,45.99
2018-03-26T18:26:50.459Z,45.94
2018-03-26T18:29:18.867Z,45.93
2018-03-26T18:31:47.655Z,46.09
2018-03-26T18:34:15.521Z,46.03
2018-03-26T18:36:44.104Z,46.13
2018-03-26T18:39:12.382Z,46.46
2018-03-26T18:41:40.557Z,47.47
2018-03-26T18:44:08.422Z,46.96
2018-03-26T18:46:36.714Z,47.27
2018-03-26T18:49:04.669Z,46.98
2018-03-26T18:51:33.124Z,46.70
2018-03-26T18:54:01.721Z,46.44
2018-03-26T18:56:29.699Z,46.82
2018-03-26T18:58:57.465Z,47.03
2018-03-26T19:01:26.273Z,47.27
2018-03-26T19:03:54.324Z,46.95
2018-03-26T19:06:22.252Z,46.85
2018-03-26T19:08:50.364Z,46.50
2018-03-26T19:11:18.288Z,46.16
2018-03-26T19:13:46.198Z,46.06
2018-03-26T19:16:14.270Z,45.87
2018-03-26T19:18:42.140Z,45.88
2018-03-26T19:21:10.211Z,46.02
2018-03-26T19:23:38.195Z,46.08
2018-03-26T19:26:06.251Z,46.39
2018-03-26T19:28:34.116Z,46.62
2018-03-26T19:31:02.598Z,46.92
2018-03-26T19:33:30.464Z,46.82
2018-03-26T19:35:59.250Z,47.27
2018-03-26T19:38:28.040Z,47.53
2018-03-26T19:40:56.826Z,47.69
2018-03-26T19:43:25.206Z,48.48
2018-03-26T19:45:53.421Z,47.71
2018-03-26T19:48:21.655Z,48.12
2018-03-26T19:50:49.523Z,48.55
2018-03-26T19:53:17.388Z,49.30
2018-03-26T19:55:45.357Z,49.20
2018-03-26T19:58:13.270Z,49.26
2018-03-26T20:00:42.012Z,49.32
2018-03-26T20:03:09.981Z,50.22
2018-03-26T20:05:40.613Z,50.77
2018-03-26T20:08:08.600Z,50.86
2018-03-26T20:10:36.758Z,50.59
2018-03-26T20:13:05.235Z,50.65
2018-03-26T20:15:34.129Z,50.74
2018-03-26T20:18:01.992Z,50.89
2018-03-26T20:20:30.269Z,50.65
2018-03-26T20:22:58.238Z,50.54
2018-03-26T20:25:27.389Z,50.42
2018-03-26T20:27:55.909Z,50.13
2018-03-26T20:30:25.012Z,51.04
2018-03-26T20:32:52.981Z,51.31
2018-03-26T20:35:20.852Z,51.28
2018-03-26T20:37:49.021Z,51.38
2018-03-26T20:40:17.092Z,51.26
2018-03-26T20:42:44.930Z,51.90
2018-03-26T20:45:13.851Z,51.93
2018-03-26T20:47:41.694Z,52.58
2018-03-26T20:50:09.787Z,52.07
2018-03-26T20:52:37.655Z,52.89
2018-03-26T20:55:05.641Z,53.87
2018-03-26T20:57:33.432Z,54.12
2018-03-26T21:00:01.256Z,54.68
2018-03-26T21:02:29.426Z,55.64
2018-03-26T21:04:57.187Z,55.66
2018-03-26T21:07:25.365Z,56.37
2018-03-26T21:09:53.334Z,57.09
2018-03-26T21:12:22.082Z,56.60
2018-03-26T21:14:50.194Z,57.58
2018-03-26T21:17:18.061Z,57.51
2018-03-26T21:19:45.926Z,57.56
2018-03-26T21:22:13.848Z,58.68
2018-03-26T21:24:41.761Z,58.48
2018-03-26T21:27:09.887Z,59.19
2018-03-26T21:29:38.419Z,59.25
2018-03-26T21:32:06.396Z,59.93
2018-03-26T21:34:34.286Z,59.89
2018-03-26T21:37:02.242Z,60.53
2018-03-26T21:39:30.601Z,60.80
2018-03-26T21:41:58.382Z,61.05
2018-03-26T21:44:26.128Z,61.50
2018-03-26T21:46:54.008Z,61.89
2018-03-26T21:49:21.860Z,61.50
2018-03-26T21:51:50.649Z,62.04
2018-03-26T21:54:18.416Z,62.32
2018-03-26T21:56:46.381Z,62.24
2018-03-26T21:59:14.356Z,62.39
2018-03-26T22:01:42.120Z,62.06
2018-03-26T22:04:10.596Z,61.70
2018-03-26T22:06:38.463Z,61.73
2018-03-26T22:09:06.329Z,61.65
2018-03-26T22:11:33.964Z,61.96
2018-03-26T22:14:01.602Z,62.65
2018-03-26T22:16:29.181Z,63.35
2018-03-26T22:18:57.367Z,62.84
2018-03-26T22:21:25.132Z,63.33
2018-03-26T22:23:53.693Z,63.25
2018-03-26T22:26:21.497Z,62.68
2018-03-26T22:28:49.237Z,62.65
2018-03-26T22:31:16.809Z,62.39
2018-03-26T22:33:44.377Z,62.94
2018-03-26T22:36:11.920Z,62.71
2018-03-26T22:38:40.234Z,64.24
2018-03-26T22:41:08.074Z,65.42
2018-03-26T22:43:35.616Z,64.56
2018-03-26T22:46:03.138Z,64.88
2018-03-26T22:48:30.693Z,65.80
2018-03-26T22:50:58.325Z,65.87
2018-03-26T22:53:26.186Z,65.75
2018-03-26T22:55:53.755Z,65.49
2018-03-26T22:58:21.305Z,65.70
2018-03-26T23:00:48.849Z,66.40
2018-03-26T23:03:16.379Z,66.26
2018-03-26T23:05:44.290Z,66.82
2018-03-26T23:08:11.825Z,67.24
2018-03-26T23:10:39.338Z,67.41
2018-03-26T23:13:07.046Z,67.88
2018-03-26T23:15:34.569Z,68.02
2018-03-26T23:18:02.149Z,68.46
2018-03-26T23:20:29.742Z,68.11
2018-03-26T23:22:57.270Z,68.00
2018-03-26T23:25:24.787Z,67.87
2018-03-26T23:27:52.338Z,68.00
2018-03-26T23:30:19.857Z,68.48
2018-03-26T23:32:47.365Z,68.01
2018-03-26T23:35:14.939Z,69.07
2018-03-26T23:37:42.465Z,69.65
2018-03-26T23:40:09.981Z,68.24
2018-03-26T23:42:37.678Z,68.27
2018-03-26T23:45:05.199Z,68.44
2018-03-26T23:47:32.713Z,68.38
2018-03-26T23:50:00.433Z,67.68
2018-03-26T23:52:28.018Z,67.69
2018-03-26T23:54:55.574Z,67.99
2018-03-26T23:57:23.125Z,68.40
2018-03-26T23:59:50.654Z,69.39
